sensor_id;sensor_type;location;lat;lon;timestamp;temperature;humidity
33460;DHT22;19795;53.160;6.612;2022-08-21T03:57:16;12.40;99.90
33460;DHT22;19795;53.160;6.612;2022-08-21T04:04:38;12.40;99.90
33460;DHT22;19795;53.160;6.612;2022-08-21T04:07:04;12.40;99.90
33460;DHT22;19795;53.160;6.612;2022-08-21T04:09:31;12.30;99.90
33460;DHT22;19795;53.160;6.612;2022-08-21T04:11:57;12.40;99.90
33460;DHT22;19795;53.160;6.612;2022-08-21T04:14:23;12.40;99.90
33460;DHT22;19795;53.160;6.612;2022-08-21T04:16:49;12.40;99.90
33460;DHT22;19795;53.160;6.612;2022-08-21T04:19:15;12.30;99.90
33460;DHT22;19795;53.160;6.612;2022-08-21T04:21:41;12.40;99.90
33460;DHT22;19795;53.160;6.612;2022-08-21T04:24:08;12.30;99.90
33460;DHT22;19795;53.160;6.612;2022-08-21T04:26:35;12.40;99.90
33460;DHT22;19795;53.160;6.612;2022-08-21T04:29:03;12.30;99.90
33460;DHT22;19795;53.160;6.612;2022-08-21T04:31:30;12.30;99.90
33460;DHT22;19795;53.160;6.612;2022-08-21T04:33:55;12.30;99.90
33460;DHT22;19795;53.160;6.612;2022-08-21T04:36:22;12.40;99.90
33460;DHT22;19795;53.160;6.612;2022-08-21T04:38:48;12.40;99.90
33460;DHT22;19795;53.160;6.612;2022-08-21T04:41:14;12.50;99.90
33460;DHT22;19795;53.160;6.612;2022-08-21T04:43:39;12.60;99.90
33460;DHT22;19795;53.160;6.612;2022-08-21T04:46:05;12.60;99.90
33460;DHT22;19795;53.160;6.612;2022-08-21T04:48:31;12.60;99.90
33460;DHT22;19795;53.160;6.612;2022-08-21T04:51:11;12.70;99.90
33460;DHT22;19795;53.160;6.612;2022-08-21T04:53:44;12.70;99.90
33460;DHT22;19795;53.160;6.612;2022-08-21T04:56:32;12.70;99.90
33460;DHT22;19795;53.160;6.612;2022-08-21T04:59:02;12.80;99.90
33460;DHT22;19795;53.160;6.612;2022-08-21T05:01:32;12.80;99.90
33460;DHT22;19795;53.160;6.612;2022-08-21T05:04:00;12.90;99.90
33460;DHT22;19795;53.160;6.612;2022-08-21T05:06:28;12.90;99.90
33460;DHT22;19795;53.160;6.612;2022-08-21T05:08:56;13.10;99.90
33460;DHT22;19795;53.160;6.612;2022-08-21T05:11:22;13.20;99.90
33460;DHT22;19795;53.160;6.612;2022-08-21T05:13:48;13.20;99.90
33460;DHT22;19795;53.160;6.612;2022-08-21T05:16:14;13.20;99.90
33460;DHT22;19795;53.160;6.612;2022-08-21T05:18:42;13.40;99.90
33460;DHT22;19795;53.160;6.612;2022-08-21T05:21:07;13.30;99.90
33460;DHT22;19795;53.160;6.612;2022-08-21T05:23:35;13.40;99.90
33460;DHT22;19795;53.160;6.612;2022-08-21T05:26:00;13.40;99.90
33460;DHT22;19795;53.160;6.612;2022-08-21T05:28:26;13.50;99.90
33460;DHT22;19795;53.160;6.612;2022-08-21T05:30:52;13.50;99.90
33460;DHT22;19795;53.160;6.612;2022-08-21T05:33:18;13.60;99.90
33460;DHT22;19795;53.160;6.612;2022-08-21T05:35:44;13.70;99.90
33460;DHT22;19795;53.160;6.612;2022-08-21T05:38:10;13.90;99.90
33460;DHT22;19795;53.160;6.612;2022-08-21T05:40:36;14.80;99.90
33460;DHT22;19795;53.160;6.612;2022-08-21T05:43:03;15.60;99.90
33460;DHT22;19795;53.160;6.612;2022-08-21T05:45:31;16.20;99.90
33460;DHT22;19795;53.160;6.612;2022-08-21T05:47:57;17.10;99.90
33460;DHT22;19795;53.160;6.612;2022-08-21T05:50:23;17.80;99.90
33460;DHT22;19795;53.160;6.612;2022-08-21T05:52:49;18.20;99.90
33460;DHT22;19795;53.160;6.612;2022-08-21T05:55:14;18.80;99.90
33460;DHT22;19795;53.160;6.612;2022-08-21T05:57:40;18.80;99.90
33460;DHT22;19795;53.160;6.612;2022-08-21T06:00:08;19.40;99.90
33460;DHT22;19795;53.160;6.612;2022-08-21T06:02:35;19.70;99.90
33460;DHT22;19795;53.160;6.612;2022-08-21T06:05:02;20.20;99.90
33460;DHT22;19795;53.160;6.612;2022-08-21T06:07:27;20.70;99.90
33460;DHT22;19795;53.160;6.612;2022-08-21T06:09:54;21.00;99.90
33460;DHT22;19795;53.160;6.612;2022-08-21T06:12:19;21.10;99.90
33460;DHT22;19795;53.160;6.612;2022-08-21T06:14:45;21.40;99.90
33460;DHT22;19795;53.160;6.612;2022-08-21T06:17:12;21.80;99.90
33460;DHT22;19795;53.160;6.612;2022-08-21T06:19:39;22.10;99.90
33460;DHT22;19795;53.160;6.612;2022-08-21T06:22:05;22.20;99.90
33460;DHT22;19795;53.160;6.612;2022-08-21T06:24:31;22.60;99.90
33460;DHT22;19795;53.160;6.612;2022-08-21T06:26:57;23.10;99.90
33460;DHT22;19795;53.160;6.612;2022-08-21T06:29:23;22.80;99.90
33460;DHT22;19795;53.160;6.612;2022-08-21T06:31:50;23.10;99.90
33460;DHT22;19795;53.160;6.612;2022-08-21T06:34:16;23.20;99.90
33460;DHT22;19795;53.160;6.612;2022-08-21T06:36:43;23.50;99.90
33460;DHT22;19795;53.160;6.612;2022-08-21T06:39:08;23.90;99.90
33460;DHT22;19795;53.160;6.612;2022-08-21T06:41:34;24.20;99.90
33460;DHT22;19795;53.160;6.612;2022-08-21T06:44:00;23.90;99.90
33460;DHT22;19795;53.160;6.612;2022-08-21T06:46:28;24.00;99.90
33460;DHT22;19795;53.160;6.612;2022-08-21T06:48:57;23.90;99.90
33460;DHT22;19795;53.160;6.612;2022-08-21T06:51:23;23.90;99.90
33460;DHT22;19795;53.160;6.612;2022-08-21T06:53:49;24.00;99.90
33460;DHT22;19795;53.160;6.612;2022-08-21T06:56:15;24.30;99.90
33460;DHT22;19795;53.160;6.612;2022-08-21T06:58:40;24.40;99.90
33460;DHT22;19795;53.160;6.612;2022-08-21T07:01:06;24.60;99.90
33460;DHT22;19795;53.160;6.612;2022-08-21T07:03:37;24.60;99.90
33460;DHT22;19795;53.160;6.612;2022-08-21T07:06:05;24.80;99.90
33460;DHT22;19795;53.160;6.612;2022-08-21T07:08:31;25.00;99.90
33460;DHT22;19795;53.160;6.612;2022-08-21T07:10:59;25.20;99.90
33460;DHT22;19795;53.160;6.612;2022-08-21T07:13:26;24.90;99.90
33460;DHT22;19795;53.160;6.612;2022-08-21T07:15:52;24.60;99.90
33460;DHT22;19795;53.160;6.612;2022-08-21T07:18:17;25.10;99.90
33460;DHT22;19795;53.160;6.612;2022-08-21T07:20:43;25.20;99.90
33460;DHT22;19795;53.160;6.612;2022-08-21T07:23:28;25.00;99.90
33460;DHT22;19795;53.160;6.612;2022-08-21T07:25:54;25.20;99.90
33460;DHT22;19795;53.160;6.612;2022-08-21T07:28:20;25.60;99.90
33460;DHT22;19795;53.160;6.612;2022-08-21T07:30:52;25.80;99.90
33460;DHT22;19795;53.160;6.612;2022-08-21T07:33:19;26.20;99.90
33460;DHT22;19795;53.160;6.612;2022-08-21T07:35:44;26.00;99.90
33460;DHT22;19795;53.160;6.612;2022-08-21T07:38:10;25.90;99.90
33460;DHT22;19795;53.160;6.612;2022-08-21T07:40:35;25.50;99.90
33460;DHT22;19795;53.160;6.612;2022-08-21T07:43:01;25.30;99.90
33460;DHT22;19795;53.160;6.612;2022-08-21T07:45:28;25.00;99.90
33460;DHT22;19795;53.160;6.612;2022-08-21T07:47:54;24.90;99.90
33460;DHT22;19795;53.160;6.612;2022-08-21T07:50:20;25.00;99.90
33460;DHT22;19795;53.160;6.612;2022-08-21T07:52:46;25.30;99.90
33460;DHT22;19795;53.160;6.612;2022-08-21T07:55:15;25.50;99.90
33460;DHT22;19795;53.160;6.612;2022-08-21T07:57:41;26.00;99.90
33460;DHT22;19795;53.160;6.612;2022-08-21T08:00:09;26.20;99.90
33460;DHT22;19795;53.160;6.612;2022-08-21T08:02:35;25.90;99.90
33460;DHT22;19795;53.160;6.612;2022-08-21T08:05:05;25.80;99.90
33460;DHT22;19795;53.160;6.612;2022-08-21T08:07:31;26.00;99.90
33460;DHT22;19795;53.160;6.612;2022-08-21T08:09:57;25.80;99.90
33460;DHT22;19795;53.160;6.612;2022-08-21T08:12:23;25.00;99.90
33460;DHT22;19795;53.160;6.612;2022-08-21T08:14:57;25.00;99.90
33460;DHT22;19795;53.160;6.612;2022-08-21T08:17:23;25.20;99.90
33460;DHT22;19795;53.160;6.612;2022-08-21T08:19:49;25.60;99.90
33460;DHT22;19795;53.160;6.612;2022-08-21T08:22:17;26.00;99.90
33460;DHT22;19795;53.160;6.612;2022-08-21T08:24:45;26.40;99.90
33460;DHT22;19795;53.160;6.612;2022-08-21T08:27:11;26.50;99.90
33460;DHT22;19795;53.160;6.612;2022-08-21T08:29:37;26.50;99.90
33460;DHT22;19795;53.160;6.612;2022-08-21T08:32:04;26.80;99.90
33460;DHT22;19795;53.160;6.612;2022-08-21T08:34:30;26.90;99.90
33460;DHT22;19795;53.160;6.612;2022-08-21T08:36:56;26.60;99.90
33460;DHT22;19795;53.160;6.612;2022-08-21T08:39:23;26.50;99.90
33460;DHT22;19795;53.160;6.612;2022-08-21T08:41:49;26.80;99.90
33460;DHT22;19795;53.160;6.612;2022-08-21T08:44:16;26.90;99.90
33460;DHT22;19795;53.160;6.612;2022-08-21T08:46:47;27.30;99.90
33460;DHT22;19795;53.160;6.612;2022-08-21T08:49:38;26.70;99.90
33460;DHT22;19795;53.160;6.612;2022-08-21T08:52:17;26.80;99.90
33460;DHT22;19795;53.160;6.612;2022-08-21T08:54:51;26.90;99.90
33460;DHT22;19795;53.160;6.612;2022-08-21T08:57:20;26.70;99.90
33460;DHT22;19795;53.160;6.612;2022-08-21T08:59:51;26.50;99.90
33460;DHT22;19795;53.160;6.612;2022-08-21T09:02:18;26.40;99.90
33460;DHT22;19795;53.160;6.612;2022-08-21T09:04:45;26.20;99.90
33460;DHT22;19795;53.160;6.612;2022-08-21T09:10:19;26.70;99.90
33460;DHT22;19795;53.160;6.612;2022-08-21T09:15:27;26.70;99.90
33460;DHT22;19795;53.160;6.612;2022-08-21T09:21:11;26.60;99.90
33460;DHT22;19795;53.160;6.612;2022-08-21T09:26:26;27.60;99.90
33460;DHT22;19795;53.160;6.612;2022-08-21T09:28:55;27.00;99.90
33460;DHT22;19795;53.160;6.612;2022-08-21T09:34:03;25.50;99.90
33460;DHT22;19795;53.160;6.612;2022-08-21T09:36:47;25.80;99.90
33460;DHT22;19795;53.160;6.612;2022-08-21T09:39:26;25.90;99.90
33460;DHT22;19795;53.160;6.612;2022-08-21T09:42:11;25.60;99.90
33460;DHT22;19795;53.160;6.612;2022-08-21T09:44:40;25.30;99.90
33460;DHT22;19795;53.160;6.612;2022-08-21T09:47:10;25.40;99.90
33460;DHT22;19795;53.160;6.612;2022-08-21T09:49:40;25.90;99.90
33460;DHT22;19795;53.160;6.612;2022-08-21T09:52:22;26.20;99.90
33460;DHT22;19795;53.160;6.612;2022-08-21T09:54:54;26.20;99.90
33460;DHT22;19795;53.160;6.612;2022-08-21T09:57:27;26.60;99.90
33460;DHT22;19795;53.160;6.612;2022-08-21T10:00:31;26.90;99.90
33460;DHT22;19795;53.160;6.612;2022-08-21T10:03:19;27.60;99.90
33460;DHT22;19795;53.160;6.612;2022-08-21T10:08:21;27.60;99.90
33460;DHT22;19795;53.160;6.612;2022-08-21T10:10:55;27.50;99.90
33460;DHT22;19795;53.160;6.612;2022-08-21T10:16:31;27.50;99.90
33460;DHT22;19795;53.160;6.612;2022-08-21T10:22:03;27.70;99.90
33460;DHT22;19795;53.160;6.612;2022-08-21T10:27:37;26.30;99.90
33460;DHT22;19795;53.160;6.612;2022-08-21T10:44:30;26.20;99.90
33460;DHT22;19795;53.160;6.612;2022-08-21T10:48:04;25.70;99.90
33460;DHT22;19795;53.160;6.612;2022-08-21T10:50:23;25.20;99.90
33460;DHT22;19795;53.160;6.612;2022-08-21T10:53:05;24.20;99.90
33460;DHT22;19795;53.160;6.612;2022-08-21T10:55:44;23.70;99.90
33460;DHT22;19795;53.160;6.612;2022-08-21T10:58:16;23.30;99.90
33460;DHT22;19795;53.160;6.612;2022-08-21T11:00:46;23.10;99.90
33460;DHT22;19795;53.160;6.612;2022-08-21T11:03:29;23.10;99.90
33460;DHT22;19795;53.160;6.612;2022-08-21T11:08:45;23.40;99.90
33460;DHT22;19795;53.160;6.612;2022-08-21T11:11:35;23.30;99.90
33460;DHT22;19795;53.160;6.612;2022-08-21T11:17:06;22.90;99.90
33460;DHT22;19795;53.160;6.612;2022-08-21T11:19:50;22.60;99.90
33460;DHT22;19795;53.160;6.612;2022-08-21T11:22:47;22.50;99.90
33460;DHT22;19795;53.160;6.612;2022-08-21T11:25:26;22.50;99.90
33460;DHT22;19795;53.160;6.612;2022-08-21T11:39:35;21.90;99.90
33460;DHT22;19795;53.160;6.612;2022-08-21T11:44:45;22.10;99.90
33460;DHT22;19795;53.160;6.612;2022-08-21T11:52:38;22.10;99.90
33460;DHT22;19795;53.160;6.612;2022-08-21T11:55:18;22.90;99.90
33460;DHT22;19795;53.160;6.612;2022-08-21T11:57:52;24.00;99.90
33460;DHT22;19795;53.160;6.612;2022-08-21T12:00:20;25.00;99.90
33460;DHT22;19795;53.160;6.612;2022-08-21T12:02:55;24.60;99.90
33460;DHT22;19795;53.160;6.612;2022-08-21T12:05:31;25.00;99.90
33460;DHT22;19795;53.160;6.612;2022-08-21T12:08:27;24.90;99.90
33460;DHT22;19795;53.160;6.612;2022-08-21T12:11:05;25.20;99.90
33460;DHT22;19795;53.160;6.612;2022-08-21T12:13:35;25.30;99.90
33460;DHT22;19795;53.160;6.612;2022-08-21T12:16:15;25.60;99.90
33460;DHT22;19795;53.160;6.612;2022-08-21T12:18:42;26.20;99.90
33460;DHT22;19795;53.160;6.612;2022-08-21T12:26:36;25.80;99.90
33460;DHT22;19795;53.160;6.612;2022-08-21T12:29:33;25.70;99.90
33460;DHT22;19795;53.160;6.612;2022-08-21T12:34:32;24.20;99.90
33460;DHT22;19795;53.160;6.612;2022-08-21T12:37:37;23.50;99.90
33460;DHT22;19795;53.160;6.612;2022-08-21T12:42:45;23.00;99.90
33460;DHT22;19795;53.160;6.612;2022-08-21T12:46:00;23.10;99.90
33460;DHT22;19795;53.160;6.612;2022-08-21T12:48:13;23.00;99.90
33460;DHT22;19795;53.160;6.612;2022-08-21T12:50:52;23.00;99.90
33460;DHT22;19795;53.160;6.612;2022-08-21T12:55:47;23.10;99.90
33460;DHT22;19795;53.160;6.612;2022-08-21T12:58:19;23.70;99.90
33460;DHT22;19795;53.160;6.612;2022-08-21T13:00:54;24.90;99.90
33460;DHT22;19795;53.160;6.612;2022-08-21T13:03:22;25.20;99.90
33460;DHT22;19795;53.160;6.612;2022-08-21T13:05:48;26.30;99.90
33460;DHT22;19795;53.160;6.612;2022-08-21T13:08:18;27.10;99.90
33460;DHT22;19795;53.160;6.612;2022-08-21T13:10:47;26.40;99.90
33460;DHT22;19795;53.160;6.612;2022-08-21T13:13:19;25.50;99.90
33460;DHT22;19795;53.160;6.612;2022-08-21T13:15:46;24.90;99.90
33460;DHT22;19795;53.160;6.612;2022-08-21T13:18:24;25.00;99.90
33460;DHT22;19795;53.160;6.612;2022-08-21T13:20:51;25.10;99.90
33460;DHT22;19795;53.160;6.612;2022-08-21T13:23:25;25.00;99.90
33460;DHT22;19795;53.160;6.612;2022-08-21T13:25:51;25.30;99.90
33460;DHT22;19795;53.160;6.612;2022-08-21T13:28:17;25.60;99.90
33460;DHT22;19795;53.160;6.612;2022-08-21T13:30:52;25.40;99.90
33460;DHT22;19795;53.160;6.612;2022-08-21T13:33:20;25.40;99.90
33460;DHT22;19795;53.160;6.612;2022-08-21T13:38:29;24.60;99.90
33460;DHT22;19795;53.160;6.612;2022-08-21T13:41:09;24.30;99.90
33460;DHT22;19795;53.160;6.612;2022-08-21T13:43:37;23.90;99.90
33460;DHT22;19795;53.160;6.612;2022-08-21T13:46:09;23.90;99.90
33460;DHT22;19795;53.160;6.612;2022-08-21T13:48:36;24.10;99.90
33460;DHT22;19795;53.160;6.612;2022-08-21T13:51:03;24.20;99.90
33460;DHT22;19795;53.160;6.612;2022-08-21T13:53:36;24.40;99.90
33460;DHT22;19795;53.160;6.612;2022-08-21T13:56:32;24.40;99.90
33460;DHT22;19795;53.160;6.612;2022-08-21T13:59:00;24.80;99.90
33460;DHT22;19795;53.160;6.612;2022-08-21T14:01:32;25.10;99.90
33460;DHT22;19795;53.160;6.612;2022-08-21T14:04:18;25.50;99.90
33460;DHT22;19795;53.160;6.612;2022-08-21T14:06:46;26.00;99.90
33460;DHT22;19795;53.160;6.612;2022-08-21T14:09:32;26.40;99.90
33460;DHT22;19795;53.160;6.612;2022-08-21T14:12:04;25.40;99.90
33460;DHT22;19795;53.160;6.612;2022-08-21T14:14:39;24.90;99.90
33460;DHT22;19795;53.160;6.612;2022-08-21T14:17:09;24.20;99.90
33460;DHT22;19795;53.160;6.612;2022-08-21T14:19:40;24.50;99.90
33460;DHT22;19795;53.160;6.612;2022-08-21T14:22:30;24.70;99.90
33460;DHT22;19795;53.160;6.612;2022-08-21T14:25:29;25.20;99.90
33460;DHT22;19795;53.160;6.612;2022-08-21T14:30:40;25.20;99.90
33460;DHT22;19795;53.160;6.612;2022-08-21T14:33:18;25.40;99.90
33460;DHT22;19795;53.160;6.612;2022-08-21T14:35:45;25.10;99.90
33460;DHT22;19795;53.160;6.612;2022-08-21T14:38:17;25.40;99.90
33460;DHT22;19795;53.160;6.612;2022-08-21T14:40:44;25.20;99.90
33460;DHT22;19795;53.160;6.612;2022-08-21T14:43:10;25.60;99.90
33460;DHT22;19795;53.160;6.612;2022-08-21T14:45:36;25.60;99.90
33460;DHT22;19795;53.160;6.612;2022-08-21T14:48:04;24.50;99.90
33460;DHT22;19795;53.160;6.612;2022-08-21T14:50:29;24.00;99.90
33460;DHT22;19795;53.160;6.612;2022-08-21T14:52:55;24.20;99.90
33460;DHT22;19795;53.160;6.612;2022-08-21T14:55:24;24.50;99.90
33460;DHT22;19795;53.160;6.612;2022-08-21T14:57:51;24.70;99.90
33460;DHT22;19795;53.160;6.612;2022-08-21T15:00:20;24.30;99.90
33460;DHT22;19795;53.160;6.612;2022-08-21T15:02:48;24.50;99.90
33460;DHT22;19795;53.160;6.612;2022-08-21T15:05:14;24.70;99.90
33460;DHT22;19795;53.160;6.612;2022-08-21T15:07:40;24.90;99.90
33460;DHT22;19795;53.160;6.612;2022-08-21T15:10:07;24.70;99.90
33460;DHT22;19795;53.160;6.612;2022-08-21T15:12:34;24.00;99.90
33460;DHT22;19795;53.160;6.612;2022-08-21T15:15:00;23.40;99.90
33460;DHT22;19795;53.160;6.612;2022-08-21T15:17:26;23.30;99.90
33460;DHT22;19795;53.160;6.612;2022-08-21T15:19:51;23.20;99.90
33460;DHT22;19795;53.160;6.612;2022-08-21T15:22:17;23.20;99.90
33460;DHT22;19795;53.160;6.612;2022-08-21T15:24:43;23.20;99.90
33460;DHT22;19795;53.160;6.612;2022-08-21T15:27:09;23.10;99.90
33460;DHT22;19795;53.160;6.612;2022-08-21T15:29:36;22.90;99.90
33460;DHT22;19795;53.160;6.612;2022-08-21T15:32:22;23.20;99.90
33460;DHT22;19795;53.160;6.612;2022-08-21T15:34:49;23.30;99.90
33460;DHT22;19795;53.160;6.612;2022-08-21T15:37:15;23.40;99.90
33460;DHT22;19795;53.160;6.612;2022-08-21T15:39:41;23.60;99.90
33460;DHT22;19795;53.160;6.612;2022-08-21T15:42:07;23.80;99.90
33460;DHT22;19795;53.160;6.612;2022-08-21T15:44:33;23.90;99.90
33460;DHT22;19795;53.160;6.612;2022-08-21T15:46:59;23.60;99.90
33460;DHT22;19795;53.160;6.612;2022-08-21T15:49:25;23.40;99.90
33460;DHT22;19795;53.160;6.612;2022-08-21T15:51:50;23.40;99.90
33460;DHT22;19795;53.160;6.612;2022-08-21T15:54:16;23.40;99.90
33460;DHT22;19795;53.160;6.612;2022-08-21T15:56:46;23.60;99.90
33460;DHT22;19795;53.160;6.612;2022-08-21T15:59:16;23.50;99.90
33460;DHT22;19795;53.160;6.612;2022-08-21T16:01:42;23.30;99.90
33460;DHT22;19795;53.160;6.612;2022-08-21T16:04:08;23.00;99.90
33460;DHT22;19795;53.160;6.612;2022-08-21T16:06:34;23.00;99.90
33460;DHT22;19795;53.160;6.612;2022-08-21T16:09:00;23.00;99.90
33460;DHT22;19795;53.160;6.612;2022-08-21T16:11:26;23.10;99.90
33460;DHT22;19795;53.160;6.612;2022-08-21T16:13:53;23.30;99.90
33460;DHT22;19795;53.160;6.612;2022-08-21T16:16:22;23.40;99.90
33460;DHT22;19795;53.160;6.612;2022-08-21T16:18:49;23.40;99.90
33460;DHT22;19795;53.160;6.612;2022-08-21T16:21:16;23.20;99.90
33460;DHT22;19795;53.160;6.612;2022-08-21T16:23:41;23.10;99.90
33460;DHT22;19795;53.160;6.612;2022-08-21T16:26:09;23.10;99.90
33460;DHT22;19795;53.160;6.612;2022-08-21T16:28:37;22.90;99.90
33460;DHT22;19795;53.160;6.612;2022-08-21T16:31:03;22.80;99.90
33460;DHT22;19795;53.160;6.612;2022-08-21T16:33:37;22.70;99.90
33460;DHT22;19795;53.160;6.612;2022-08-21T16:36:04;22.80;99.90
33460;DHT22;19795;53.160;6.612;2022-08-21T16:38:30;22.80;99.90
33460;DHT22;19795;53.160;6.612;2022-08-21T16:40:58;22.70;99.90
33460;DHT22;19795;53.160;6.612;2022-08-21T16:43:25;22.50;99.90
33460;DHT22;19795;53.160;6.612;2022-08-21T16:45:53;22.40;99.90
33460;DHT22;19795;53.160;6.612;2022-08-21T16:48:19;22.40;99.90
33460;DHT22;19795;53.160;6.612;2022-08-21T16:50:45;22.10;99.90
33460;DHT22;19795;53.160;6.612;2022-08-21T16:53:10;22.00;99.90
33460;DHT22;19795;53.160;6.612;2022-08-21T16:55:37;21.90;99.90
33460;DHT22;19795;53.160;6.612;2022-08-21T16:58:12;21.60;99.90
33460;DHT22;19795;53.160;6.612;2022-08-21T17:00:40;21.50;99.90
33460;DHT22;19795;53.160;6.612;2022-08-21T17:03:05;21.50;99.90
33460;DHT22;19795;53.160;6.612;2022-08-21T17:05:31;21.40;99.90
33460;DHT22;19795;53.160;6.612;2022-08-21T17:07:57;21.60;99.90
33460;DHT22;19795;53.160;6.612;2022-08-21T17:10:23;21.60;99.90
33460;DHT22;19795;53.160;6.612;2022-08-21T17:12:54;21.50;99.90
33460;DHT22;19795;53.160;6.612;2022-08-21T17:15:28;21.60;99.90
33460;DHT22;19795;53.160;6.612;2022-08-21T17:17:54;21.70;99.90
33460;DHT22;19795;53.160;6.612;2022-08-21T17:20:21;21.60;99.90
33460;DHT22;19795;53.160;6.612;2022-08-21T17:22:47;21.70;99.90
33460;DHT22;19795;53.160;6.612;2022-08-21T17:25:14;21.70;99.90
33460;DHT22;19795;53.160;6.612;2022-08-21T17:27:40;21.60;99.90
33460;DHT22;19795;53.160;6.612;2022-08-21T17:30:09;21.50;99.90
33460;DHT22;19795;53.160;6.612;2022-08-21T17:32:35;21.50;99.90
33460;DHT22;19795;53.160;6.612;2022-08-21T17:35:01;21.50;99.90
33460;DHT22;19795;53.160;6.612;2022-08-21T17:37:27;21.30;99.90
33460;DHT22;19795;53.160;6.612;2022-08-21T17:39:53;21.20;99.90
33460;DHT22;19795;53.160;6.612;2022-08-21T17:42:19;21.20;99.90
33460;DHT22;19795;53.160;6.612;2022-08-21T17:44:46;21.00;99.90
33460;DHT22;19795;53.160;6.612;2022-08-21T17:47:13;20.90;99.90
33460;DHT22;19795;53.160;6.612;2022-08-21T17:49:39;20.70;99.90
33460;DHT22;19795;53.160;6.612;2022-08-21T17:52:05;20.70;99.90
33460;DHT22;19795;53.160;6.612;2022-08-21T17:54:32;20.60;99.90
33460;DHT22;19795;53.160;6.612;2022-08-21T17:56:58;20.60;99.90
33460;DHT22;19795;53.160;6.612;2022-08-21T17:59:24;20.50;99.90
33460;DHT22;19795;53.160;6.612;2022-08-21T18:01:51;20.50;99.90
33460;DHT22;19795;53.160;6.612;2022-08-21T18:04:18;20.40;99.90
33460;DHT22;19795;53.160;6.612;2022-08-21T18:06:44;20.40;99.90
33460;DHT22;19795;53.160;6.612;2022-08-21T18:09:11;20.30;99.90
33460;DHT22;19795;53.160;6.612;2022-08-21T18:11:38;20.20;99.90
33460;DHT22;19795;53.160;6.612;2022-08-21T18:14:05;20.20;99.90
33460;DHT22;19795;53.160;6.612;2022-08-21T18:16:32;20.10;99.90
33460;DHT22;19795;53.160;6.612;2022-08-21T18:18:59;20.00;99.90
33460;DHT22;19795;53.160;6.612;2022-08-21T18:21:26;19.90;99.90
33460;DHT22;19795;53.160;6.612;2022-08-21T18:23:52;19.80;99.90
33460;DHT22;19795;53.160;6.612;2022-08-21T18:26:28;19.70;99.90
33460;DHT22;19795;53.160;6.612;2022-08-21T18:28:56;19.60;99.90
33460;DHT22;19795;53.160;6.612;2022-08-21T18:31:28;19.60;99.90
33460;DHT22;19795;53.160;6.612;2022-08-21T18:33:55;19.50;99.90
33460;DHT22;19795;53.160;6.612;2022-08-21T18:36:21;19.50;99.90
33460;DHT22;19795;53.160;6.612;2022-08-21T18:38:47;19.40;99.90
33460;DHT22;19795;53.160;6.612;2022-08-21T18:41:13;19.50;99.90
33460;DHT22;19795;53.160;6.612;2022-08-21T18:43:39;19.40;99.90
33460;DHT22;19795;53.160;6.612;2022-08-21T18:46:04;19.40;99.90
33460;DHT22;19795;53.160;6.612;2022-08-21T18:48:33;19.30;99.90
33460;DHT22;19795;53.160;6.612;2022-08-21T18:50:59;19.20;99.90
33460;DHT22;19795;53.160;6.612;2022-08-21T18:53:25;19.10;99.90
33460;DHT22;19795;53.160;6.612;2022-08-21T18:55:51;19.00;99.90
33460;DHT22;19795;53.160;6.612;2022-08-21T18:58:17;18.80;99.90
33460;DHT22;19795;53.160;6.612;2022-08-21T19:00:47;18.80;99.90
33460;DHT22;19795;53.160;6.612;2022-08-21T19:03:18;18.80;99.90
33460;DHT22;19795;53.160;6.612;2022-08-21T19:05:44;18.60;99.90
33460;DHT22;19795;53.160;6.612;2022-08-21T19:08:13;18.70;99.90
33460;DHT22;19795;53.160;6.612;2022-08-21T19:10:41;18.70;99.90
33460;DHT22;19795;53.160;6.612;2022-08-21T19:13:09;18.50;99.90
33460;DHT22;19795;53.160;6.612;2022-08-21T19:15:38;18.50;99.90
33460;DHT22;19795;53.160;6.612;2022-08-21T19:18:10;18.50;99.90
33460;DHT22;19795;53.160;6.612;2022-08-21T19:20:37;18.60;99.90
33460;DHT22;19795;53.160;6.612;2022-08-21T19:23:10;18.50;99.90
33460;DHT22;19795;53.160;6.612;2022-08-21T19:25:37;18.40;99.90
33460;DHT22;19795;53.160;6.612;2022-08-21T19:28:09;18.30;99.90
33460;DHT22;19795;53.160;6.612;2022-08-21T19:30:37;18.20;99.90
33460;DHT22;19795;53.160;6.612;2022-08-21T19:33:04;18.10;99.90
33460;DHT22;19795;53.160;6.612;2022-08-21T19:35:30;18.10;99.90
33460;DHT22;19795;53.160;6.612;2022-08-21T19:37:56;18.00;99.90
33460;DHT22;19795;53.160;6.612;2022-08-21T19:40:21;17.90;99.90
33460;DHT22;19795;53.160;6.612;2022-08-21T19:42:47;17.80;99.90
33460;DHT22;19795;53.160;6.612;2022-08-21T19:45:13;17.80;99.90
33460;DHT22;19795;53.160;6.612;2022-08-21T19:47:45;17.70;99.90
33460;DHT22;19795;53.160;6.612;2022-08-21T19:50:12;17.70;99.90
33460;DHT22;19795;53.160;6.612;2022-08-21T19:52:38;17.70;99.90
33460;DHT22;19795;53.160;6.612;2022-08-21T19:55:05;17.70;99.90
33460;DHT22;19795;53.160;6.612;2022-08-21T19:57:33;17.60;99.90
33460;DHT22;19795;53.160;6.612;2022-08-21T19:59:59;17.50;99.90
33460;DHT22;19795;53.160;6.612;2022-08-21T20:02:25;17.30;99.90
33460;DHT22;19795;53.160;6.612;2022-08-21T20:04:51;17.20;99.90
33460;DHT22;19795;53.160;6.612;2022-08-21T20:07:16;17.00;99.90
33460;DHT22;19795;53.160;6.612;2022-08-21T20:09:42;17.00;99.90
33460;DHT22;19795;53.160;6.612;2022-08-21T20:12:11;16.90;99.90
33460;DHT22;19795;53.160;6.612;2022-08-21T20:14:46;16.80;99.90
33460;DHT22;19795;53.160;6.612;2022-08-21T20:17:13;16.70;99.90
33460;DHT22;19795;53.160;6.612;2022-08-21T20:19:42;16.70;99.90
33460;DHT22;19795;53.160;6.612;2022-08-21T20:22:08;16.80;99.90
33460;DHT22;19795;53.160;6.612;2022-08-21T20:24:35;16.70;99.90
33460;DHT22;19795;53.160;6.612;2022-08-21T20:27:02;16.60;99.90
33460;DHT22;19795;53.160;6.612;2022-08-21T20:29:28;16.50;99.90
33460;DHT22;19795;53.160;6.612;2022-08-21T20:31:55;16.40;99.90
33460;DHT22;19795;53.160;6.612;2022-08-21T20:34:20;16.30;99.90
33460;DHT22;19795;53.160;6.612;2022-08-21T20:36:46;16.10;99.90
33460;DHT22;19795;53.160;6.612;2022-08-21T20:39:11;16.10;99.90
33460;DHT22;19795;53.160;6.612;2022-08-21T20:41:38;16.10;99.90
33460;DHT22;19795;53.160;6.612;2022-08-21T20:44:07;16.10;99.90
33460;DHT22;19795;53.160;6.612;2022-08-21T20:46:35;16.10;99.90
33460;DHT22;19795;53.160;6.612;2022-08-21T20:49:00;16.10;99.90
33460;DHT22;19795;53.160;6.612;2022-08-21T20:54:36;16.10;99.90
33460;DHT22;19795;53.160;6.612;2022-08-21T20:57:10;16.00;99.90
33460;DHT22;19795;53.160;6.612;2022-08-21T21:05:05;15.70;99.90
